createdAt,value
2022-10-05T00:01:24.221Z,9.58
2022-10-05T00:03:53.809Z,9.59
2022-10-05T00:06:28.315Z,9.59
2022-10-05T00:08:56.766Z,9.60
2022-10-05T00:11:25.278Z,9.60
2022-10-05T00:13:53.708Z,9.61
2022-10-05T00:16:22.454Z,9.62
2022-10-05T00:18:54.010Z,9.64
2022-10-05T00:21:24.236Z,9.65
2022-10-05T00:23:54.398Z,9.66
2022-10-05T00:26:25.428Z,9.67
2022-10-05T00:28:54.388Z,9.67
2022-10-05T00:31:25.015Z,9.67
2022-10-05T00:33:54.904Z,9.68
2022-10-05T00:36:25.586Z,9.68
2022-10-05T00:38:54.194Z,9.69
2022-10-05T00:41:28.672Z,9.69
2022-10-05T00:44:20.682Z,9.69
2022-10-05T00:46:55.747Z,9.68
2022-10-05T00:49:38.426Z,9.67
2022-10-05T00:52:10.989Z,9.68
2022-10-05T00:54:42.528Z,9.68
2022-10-05T00:57:30.370Z,9.69
2022-10-05T01:00:07.325Z,9.69
2022-10-05T01:02:48.167Z,9.68
2022-10-05T01:05:23.973Z,9.68
2022-10-05T01:07:56.791Z,9.68
2022-10-05T01:10:30.697Z,9.68
2022-10-05T01:13:04.469Z,9.67
2022-10-05T01:15:38.907Z,9.68
2022-10-05T01:18:12.373Z,9.69
2022-10-05T01:20:50.454Z,9.70
2022-10-05T01:23:33.137Z,9.70
2022-10-05T01:26:12.741Z,9.71
2022-10-05T01:28:44.277Z,9.71
2022-10-05T01:31:17.672Z,9.71
2022-10-05T01:33:52.332Z,9.71
2022-10-05T01:36:24.668Z,9.71
2022-10-05T01:38:57.873Z,9.72
2022-10-05T01:41:32.730Z,9.71
2022-10-05T01:44:05.727Z,9.71
2022-10-05T01:46:38.479Z,9.71
2022-10-05T01:49:28.201Z,9.72
2022-10-05T01:52:06.711Z,9.73
2022-10-05T01:54:44.906Z,9.75
2022-10-05T01:57:22.197Z,9.75
2022-10-05T02:00:02.830Z,9.76
2022-10-05T02:02:36.242Z,9.75
2022-10-05T02:05:08.335Z,9.74
2022-10-05T02:07:40.459Z,9.74
2022-10-05T02:10:17.550Z,9.74
2022-10-05T02:12:48.206Z,9.74
2022-10-05T02:15:22.431Z,9.73
2022-10-05T02:17:52.830Z,9.72
2022-10-05T02:20:25.500Z,9.73
2022-10-05T02:22:56.073Z,9.73
2022-10-05T02:25:29.015Z,9.72
2022-10-05T02:28:01.213Z,9.71
2022-10-05T02:30:30.601Z,9.70
2022-10-05T02:33:03.000Z,9.67
2022-10-05T02:35:31.820Z,9.63
2022-10-05T02:38:08.165Z,9.59
2022-10-05T02:40:43.615Z,9.55
2022-10-05T02:43:21.134Z,9.52
2022-10-05T02:45:55.192Z,9.48
2022-10-05T02:48:25.152Z,9.46
2022-10-05T02:50:59.280Z,9.42
2022-10-05T02:53:35.525Z,9.39
2022-10-05T02:56:15.000Z,9.35
2022-10-05T02:58:48.946Z,9.32
2022-10-05T03:01:23.735Z,9.29
2022-10-05T03:03:58.061Z,9.26
2022-10-05T03:06:30.899Z,9.24
2022-10-05T03:09:02.812Z,9.22
2022-10-05T03:11:39.019Z,9.21
2022-10-05T03:14:13.240Z,9.20
2022-10-05T03:16:50.578Z,9.19
2022-10-05T03:19:36.788Z,9.18
2022-10-05T03:22:13.946Z,9.18
2022-10-05T03:24:54.514Z,9.17
2022-10-05T03:27:31.685Z,9.17
2022-10-05T03:30:04.868Z,9.18
2022-10-05T03:32:44.651Z,9.19
2022-10-05T03:35:17.815Z,9.18
2022-10-05T03:37:51.186Z,9.19
2022-10-05T03:40:29.894Z,9.17
2022-10-05T03:43:12.635Z,9.18
2022-10-05T03:45:48.407Z,9.18
2022-10-05T03:48:22.017Z,9.17
2022-10-05T03:50:58.613Z,9.16
2022-10-05T03:53:30.288Z,9.14
2022-10-05T03:56:03.375Z,9.13
2022-10-05T03:58:36.855Z,9.12
2022-10-05T04:01:10.568Z,9.10
2022-10-05T04:03:42.031Z,9.09
2022-10-05T04:06:14.105Z,9.06
2022-10-05T04:08:48.229Z,9.04
2022-10-05T04:11:19.943Z,9.01
2022-10-05T04:13:52.521Z,9.00
2022-10-05T04:16:27.380Z,8.97
2022-10-05T04:18:59.537Z,8.95
2022-10-05T04:21:32.092Z,8.93
2022-10-05T04:24:06.703Z,8.90
2022-10-05T04:26:41.571Z,8.89
2022-10-05T04:29:16.707Z,8.87
2022-10-05T04:31:57.831Z,8.86
2022-10-05T04:34:46.365Z,8.83
2022-10-05T04:37:19.687Z,8.82
2022-10-05T04:39:54.155Z,8.81
2022-10-05T04:42:34.840Z,8.80
2022-10-05T04:45:14.322Z,8.78
2022-10-05T04:48:00.403Z,8.77
2022-10-05T04:50:38.809Z,8.76
2022-10-05T04:53:17.091Z,8.73
2022-10-05T04:55:53.586Z,8.72
2022-10-05T04:58:33.711Z,8.70
2022-10-05T05:01:14.814Z,8.68
2022-10-05T05:03:55.786Z,8.67
2022-10-05T05:06:37.073Z,8.65
2022-10-05T05:09:26.869Z,8.65
2022-10-05T05:12:07.482Z,8.64
2022-10-05T05:14:59.048Z,8.63
2022-10-05T05:17:43.272Z,8.64
2022-10-05T05:20:20.744Z,8.65
2022-10-05T05:22:53.952Z,8.67
2022-10-05T05:25:38.545Z,8.67
2022-10-05T05:28:15.904Z,8.69
2022-10-05T05:30:52.599Z,8.71
2022-10-05T05:33:27.584Z,8.73
2022-10-05T05:36:13.358Z,8.75
2022-10-05T05:38:45.970Z,8.77
2022-10-05T05:41:20.641Z,8.80
2022-10-05T05:44:07.375Z,8.83
2022-10-05T05:47:02.229Z,8.85
2022-10-05T05:49:36.324Z,8.88
2022-10-05T05:52:14.570Z,8.90
2022-10-05T05:54:46.409Z,8.93
2022-10-05T05:57:19.451Z,8.97
2022-10-05T06:00:03.039Z,9.00
2022-10-05T06:02:43.474Z,9.05
2022-10-05T06:05:26.470Z,9.09
2022-10-05T06:07:56.936Z,9.14
2022-10-05T06:10:33.018Z,9.18
2022-10-05T06:13:06.463Z,9.23
2022-10-05T06:15:38.766Z,9.27
2022-10-05T06:18:11.294Z,9.32
2022-10-05T06:20:42.799Z,9.39
2022-10-05T06:23:15.627Z,9.44
2022-10-05T06:25:52.130Z,9.48
2022-10-05T06:28:20.993Z,9.54
2022-10-05T06:30:59.748Z,9.59
2022-10-05T06:33:43.754Z,9.65
2022-10-05T06:36:32.072Z,9.70
2022-10-05T06:39:39.428Z,9.74
2022-10-05T06:42:25.852Z,9.80
2022-10-05T06:45:01.209Z,9.85
2022-10-05T06:47:35.964Z,9.90
2022-10-05T06:50:11.944Z,9.95
2022-10-05T06:52:50.244Z,10.01
2022-10-05T06:55:24.254Z,10.07
2022-10-05T06:58:03.618Z,10.12
2022-10-05T07:00:37.274Z,10.17
2022-10-05T07:03:12.308Z,10.23
2022-10-05T07:05:52.887Z,10.28
2022-10-05T07:08:29.867Z,10.34
2022-10-05T07:11:06.738Z,10.40
2022-10-05T07:13:55.455Z,10.46
2022-10-05T07:16:35.485Z,10.51
2022-10-05T07:19:13.854Z,10.57
2022-10-05T07:21:48.265Z,10.63
2022-10-05T07:24:28.820Z,10.69
2022-10-05T07:27:05.558Z,10.75
2022-10-05T07:29:41.313Z,10.81
2022-10-05T07:32:20.446Z,10.88
2022-10-05T07:34:53.225Z,10.95
2022-10-05T07:37:45.603Z,11.04
2022-10-05T07:40:17.606Z,11.14
2022-10-05T07:42:55.886Z,11.24
2022-10-05T07:45:29.411Z,11.36
2022-10-05T07:48:01.184Z,11.47
2022-10-05T07:50:34.212Z,11.57
2022-10-05T07:53:06.917Z,11.66
2022-10-05T07:55:39.334Z,11.75
2022-10-05T07:58:14.935Z,11.83
2022-10-05T08:00:51.452Z,11.90
2022-10-05T08:03:29.701Z,11.97
2022-10-05T08:05:58.720Z,12.03
2022-10-05T08:08:35.478Z,12.09
2022-10-05T08:11:10.519Z,12.17
2022-10-05T08:13:44.645Z,12.30
2022-10-05T08:16:13.345Z,12.45
2022-10-05T08:18:50.474Z,12.55
2022-10-05T08:21:22.674Z,12.67
2022-10-05T08:23:57.443Z,12.76
2022-10-05T08:26:33.941Z,12.88
2022-10-05T08:29:14.012Z,13.12
2022-10-05T08:31:44.900Z,13.49
2022-10-05T08:34:22.499Z,13.86
2022-10-05T08:36:56.664Z,14.12
2022-10-05T08:39:28.322Z,14.28
2022-10-05T08:42:46.149Z,14.36
2022-10-05T08:45:36.573Z,14.40
2022-10-05T08:48:20.240Z,14.42
2022-10-05T08:51:11.022Z,14.42
2022-10-05T08:54:01.798Z,14.44
2022-10-05T08:56:39.532Z,14.46
2022-10-05T08:59:27.791Z,14.45
2022-10-05T09:02:10.086Z,14.46
2022-10-05T09:05:07.606Z,14.45
2022-10-05T09:07:58.546Z,14.48
2022-10-05T09:10:56.942Z,14.53
2022-10-05T09:13:48.573Z,14.62
2022-10-05T09:16:44.372Z,14.70
2022-10-05T09:19:44.362Z,14.82
2022-10-05T09:22:16.590Z,14.91
2022-10-05T09:24:54.594Z,14.99
2022-10-05T09:27:35.461Z,15.06
2022-10-05T09:30:26.799Z,15.11
2022-10-05T09:33:38.179Z,15.17
2022-10-05T09:36:18.961Z,15.26
2022-10-05T09:39:27.782Z,15.35
2022-10-05T09:42:36.435Z,15.42
2022-10-05T09:45:26.388Z,15.50
2022-10-05T09:48:26.954Z,15.56
2022-10-05T09:51:14.707Z,15.63
2022-10-05T09:54:35.447Z,15.67
2022-10-05T09:57:25.272Z,15.69
2022-10-05T10:03:21.036Z,15.79
2022-10-05T10:06:17.971Z,15.80
2022-10-05T10:08:59.425Z,15.79
2022-10-05T10:11:39.389Z,15.84
2022-10-05T10:14:50.916Z,15.92
2022-10-05T10:17:33.493Z,16.00
2022-10-05T10:20:22.413Z,16.06
2022-10-05T10:23:01.877Z,16.14
2022-10-05T10:26:06.985Z,16.21
2022-10-05T10:28:58.316Z,16.26
2022-10-05T10:32:02.074Z,16.33
2022-10-05T10:34:43.265Z,16.42
2022-10-05T10:37:46.266Z,16.52
2022-10-05T10:40:25.687Z,16.64
2022-10-05T10:43:09.246Z,16.75
2022-10-05T10:45:48.899Z,16.85
2022-10-05T10:48:50.906Z,16.93
2022-10-05T10:51:34.003Z,17.02
2022-10-05T10:54:20.133Z,17.06
2022-10-05T10:56:55.225Z,17.10
2022-10-05T10:59:46.887Z,17.17
2022-10-05T11:02:36.833Z,17.27
2022-10-05T11:05:22.660Z,17.34
2022-10-05T11:08:06.780Z,17.41
2022-10-05T11:10:58.427Z,17.48
2022-10-05T11:13:55.071Z,17.53
2022-10-05T11:16:57.809Z,17.53
2022-10-05T11:20:03.214Z,17.50
2022-10-05T11:22:51.897Z,17.48
2022-10-05T11:25:51.543Z,17.47
2022-10-05T11:28:30.819Z,17.51
2022-10-05T11:31:13.414Z,17.54
2022-10-05T11:34:28.208Z,17.54
2022-10-05T11:37:35.753Z,17.54
2022-10-05T11:40:47.184Z,17.61
2022-10-05T11:43:37.838Z,17.65
2022-10-05T11:46:10.673Z,17.68
2022-10-05T11:48:50.602Z,17.72
2022-10-05T11:51:29.064Z,17.77
2022-10-05T11:54:20.465Z,17.85
2022-10-05T11:56:54.751Z,17.91
2022-10-05T11:59:28.613Z,17.95
2022-10-05T12:02:16.477Z,17.97
2022-10-05T12:04:52.054Z,17.99
2022-10-05T12:07:24.472Z,18.00
2022-10-05T12:10:17.061Z,17.99
2022-10-05T12:12:55.994Z,17.99
2022-10-05T12:15:27.617Z,18.01
2022-10-05T12:18:00.278Z,17.98
2022-10-05T12:20:35.474Z,17.99
2022-10-05T12:23:11.413Z,18.00
2022-10-05T12:25:44.915Z,17.97
2022-10-05T12:28:17.537Z,17.89
2022-10-05T12:31:03.743Z,17.83
2022-10-05T12:33:35.498Z,17.81
2022-10-05T12:36:08.134Z,17.77
2022-10-05T12:38:40.737Z,17.68
2022-10-05T12:41:17.288Z,17.64
2022-10-05T12:43:55.416Z,17.61
2022-10-05T12:46:29.567Z,17.58
2022-10-05T12:49:17.373Z,17.62
2022-10-05T12:51:50.208Z,17.68
2022-10-05T12:54:23.590Z,17.72
2022-10-05T12:56:54.856Z,17.73
2022-10-05T12:59:34.914Z,17.74
2022-10-05T13:02:10.862Z,17.73
2022-10-05T13:04:43.668Z,17.75
2022-10-05T13:07:26.509Z,17.71
2022-10-05T13:10:00.689Z,17.69
2022-10-05T13:12:35.671Z,17.69
2022-10-05T13:15:10.746Z,17.69
2022-10-05T13:17:44.428Z,17.70
2022-10-05T13:20:21.502Z,17.69
2022-10-05T13:22:53.985Z,17.67
2022-10-05T13:25:26.907Z,17.67
2022-10-05T13:28:08.166Z,17.68
2022-10-05T13:30:37.979Z,17.65
2022-10-05T13:33:13.001Z,17.62
2022-10-05T13:35:45.533Z,17.61
2022-10-05T13:38:33.894Z,17.59
2022-10-05T13:41:07.581Z,17.56
2022-10-05T13:43:43.371Z,17.54
2022-10-05T13:46:19.806Z,17.52
2022-10-05T13:49:02.391Z,17.53
2022-10-05T13:51:41.523Z,17.49
2022-10-05T13:54:18.987Z,17.40
2022-10-05T13:56:53.298Z,17.37
2022-10-05T13:59:28.073Z,17.36
2022-10-05T14:02:00.807Z,17.35
2022-10-05T14:04:30.656Z,17.32
2022-10-05T14:07:19.512Z,17.28
2022-10-05T14:09:49.650Z,17.21
2022-10-05T14:12:22.618Z,17.13
2022-10-05T14:14:53.046Z,17.05
2022-10-05T14:17:38.906Z,17.01
2022-10-05T14:20:25.396Z,16.95
2022-10-05T14:23:00.207Z,16.89
2022-10-05T14:25:29.634Z,16.86
2022-10-05T14:28:04.016Z,16.83
2022-10-05T14:30:34.402Z,16.79
2022-10-05T14:33:16.182Z,16.75
2022-10-05T14:35:48.788Z,16.73
2022-10-05T14:38:21.599Z,16.71
2022-10-05T14:41:18.717Z,16.69
2022-10-05T14:43:52.772Z,16.65
2022-10-05T14:46:28.215Z,16.64
2022-10-05T14:49:13.436Z,16.63
2022-10-05T14:51:42.576Z,16.62
2022-10-05T14:54:30.319Z,16.61
2022-10-05T14:57:07.085Z,16.59
2022-10-05T15:00:09.207Z,16.56
2022-10-05T15:02:51.850Z,16.53
2022-10-05T15:05:26.710Z,16.48
2022-10-05T15:08:00.002Z,16.42
2022-10-05T15:10:33.630Z,16.38
2022-10-05T15:13:12.226Z,16.35
2022-10-05T15:15:47.603Z,16.29
2022-10-05T15:18:27.218Z,16.25
2022-10-05T15:21:21.168Z,16.19
2022-10-05T15:23:53.276Z,16.13
2022-10-05T15:26:47.710Z,16.09
2022-10-05T15:29:36.416Z,16.04
2022-10-05T15:32:15.930Z,16.00
2022-10-05T15:34:51.620Z,15.97
2022-10-05T15:37:22.747Z,15.93
2022-10-05T15:39:54.704Z,15.87
2022-10-05T15:42:29.122Z,15.81
2022-10-05T15:45:05.749Z,15.76
2022-10-05T15:47:47.089Z,15.73
2022-10-05T15:50:21.526Z,15.67
2022-10-05T15:52:53.838Z,15.63
2022-10-05T15:55:29.270Z,15.59
2022-10-05T15:58:12.002Z,15.55
2022-10-05T16:00:49.022Z,15.52
2022-10-05T16:03:23.553Z,15.49
2022-10-05T16:06:15.041Z,15.45
2022-10-05T16:09:04.083Z,15.42
2022-10-05T16:11:52.456Z,15.38
2022-10-05T16:14:29.378Z,15.35
2022-10-05T16:17:07.601Z,15.33
2022-10-05T16:19:40.663Z,15.30
2022-10-05T16:22:18.079Z,15.26
2022-10-05T16:24:54.170Z,15.23
2022-10-05T16:27:28.307Z,15.21
2022-10-05T16:30:01.043Z,15.18
2022-10-05T16:32:34.191Z,15.14
2022-10-05T16:35:13.028Z,15.11
2022-10-05T16:37:48.584Z,15.08
2022-10-05T16:40:28.020Z,15.05
2022-10-05T16:43:04.405Z,15.02
2022-10-05T16:45:45.701Z,15.00
2022-10-05T16:48:19.776Z,14.97
2022-10-05T16:50:56.287Z,14.94
2022-10-05T16:53:27.686Z,14.91
2022-10-05T16:56:01.156Z,14.89
2022-10-05T16:58:38.357Z,14.88
2022-10-05T17:01:16.235Z,14.85
2022-10-05T17:03:56.654Z,14.83
2022-10-05T17:06:38.966Z,14.81
2022-10-05T17:09:46.755Z,14.79
2022-10-05T17:12:28.926Z,14.78
2022-10-05T17:15:09.875Z,14.77
2022-10-05T17:17:48.904Z,14.76
2022-10-05T17:20:30.099Z,14.75
2022-10-05T17:23:03.047Z,14.75
2022-10-05T17:25:37.397Z,14.76
2022-10-05T17:28:23.783Z,14.75
2022-10-05T17:31:08.924Z,14.75
2022-10-05T17:34:26.418Z,14.76
2022-10-05T17:36:59.163Z,14.75
2022-10-05T17:39:49.230Z,14.74
2022-10-05T17:42:47.930Z,14.73
2022-10-05T17:45:54.383Z,14.72
2022-10-05T17:49:02.386Z,14.70
2022-10-05T17:52:17.325Z,14.69
2022-10-05T17:55:29.568Z,14.67
2022-10-05T17:57:59.705Z,14.64
2022-10-05T18:00:40.430Z,14.64
2022-10-05T18:03:35.469Z,14.62
2022-10-05T18:06:23.723Z,14.61
2022-10-05T18:09:38.578Z,14.58
2022-10-05T18:12:25.329Z,14.56
2022-10-05T18:15:07.358Z,14.54
2022-10-05T18:17:40.471Z,14.51
2022-10-05T18:20:17.853Z,14.49
2022-10-05T18:22:46.751Z,14.47
2022-10-05T18:25:26.799Z,14.44
2022-10-05T18:28:04.717Z,14.42
2022-10-05T18:30:40.740Z,14.40
2022-10-05T18:33:35.496Z,14.38
2022-10-05T18:36:27.233Z,14.36
2022-10-05T18:39:01.635Z,14.34
2022-10-05T18:41:38.929Z,14.32
2022-10-05T18:44:28.479Z,14.30
2022-10-05T18:47:02.424Z,14.28
2022-10-05T18:49:46.604Z,14.27
2022-10-05T18:52:22.329Z,14.26
2022-10-05T18:55:00.787Z,14.24
2022-10-05T18:57:50.102Z,14.22
2022-10-05T19:00:20.978Z,14.21
2022-10-05T19:02:51.981Z,14.20
2022-10-05T19:05:46.822Z,14.19
2022-10-05T19:08:24.546Z,14.17
2022-10-05T19:10:56.287Z,14.16
2022-10-05T19:13:34.820Z,14.15
2022-10-05T19:16:23.255Z,14.13
2022-10-05T19:19:04.231Z,14.12
2022-10-05T19:21:41.088Z,14.10
2022-10-05T19:24:41.270Z,14.08
2022-10-05T19:27:14.479Z,14.06
2022-10-05T19:30:15.303Z,14.05
2022-10-05T19:32:56.130Z,14.04
2022-10-05T19:35:30.366Z,14.02
2022-10-05T19:38:16.331Z,14.01
2022-10-05T19:40:48.812Z,13.99
2022-10-05T19:43:29.634Z,13.98
2022-10-05T19:46:04.943Z,13.95
2022-10-05T19:48:40.062Z,13.93
2022-10-05T19:51:15.606Z,13.91
2022-10-05T19:53:49.461Z,13.89
2022-10-05T19:56:20.530Z,13.87
2022-10-05T19:58:51.367Z,13.84
2022-10-05T20:01:27.242Z,13.82
2022-10-05T20:03:57.469Z,13.80
2022-10-05T20:06:29.080Z,13.77
2022-10-05T20:09:01.012Z,13.74
2022-10-05T20:11:50.410Z,13.71
2022-10-05T20:14:20.458Z,13.68
2022-10-05T20:17:36.846Z,13.65
2022-10-05T20:20:35.448Z,13.62
2022-10-05T20:23:22.489Z,13.59
2022-10-05T20:26:10.249Z,13.56
2022-10-05T20:28:39.389Z,13.53
2022-10-05T20:31:08.867Z,13.51
2022-10-05T20:33:40.262Z,13.47
2022-10-05T20:36:17.859Z,13.45
2022-10-05T20:38:47.304Z,13.41
2022-10-05T20:41:16.262Z,13.38
2022-10-05T20:43:44.692Z,13.35
2022-10-05T20:46:13.135Z,13.33
2022-10-05T20:48:45.192Z,13.31
2022-10-05T20:51:18.031Z,13.28
2022-10-05T20:54:05.415Z,13.25
2022-10-05T20:56:34.174Z,13.22
2022-10-05T20:59:07.315Z,13.18
2022-10-05T21:01:35.730Z,13.15
2022-10-05T21:04:09.812Z,13.11
2022-10-05T21:06:38.268Z,13.07
2022-10-05T21:09:10.663Z,13.05
2022-10-05T21:11:39.947Z,13.01
2022-10-05T21:14:09.220Z,12.99
2022-10-05T21:16:40.489Z,12.95
2022-10-05T21:19:09.565Z,12.92
2022-10-05T21:21:38.354Z,12.88
2022-10-05T21:24:08.096Z,12.84
2022-10-05T21:26:37.129Z,12.81
2022-10-05T21:29:10.219Z,12.77
2022-10-05T21:31:41.317Z,12.74
2022-10-05T21:34:09.830Z,12.71
2022-10-05T21:36:38.531Z,12.68
2022-10-05T21:39:07.348Z,12.65
2022-10-05T21:41:35.764Z,12.62
2022-10-05T21:44:05.661Z,12.58
2022-10-05T21:46:36.043Z,12.54
2022-10-05T21:49:06.075Z,12.51
2022-10-05T21:51:35.614Z,12.47
2022-10-05T21:54:08.131Z,12.44
2022-10-05T21:56:38.531Z,12.41
2022-10-05T21:59:09.346Z,12.38
2022-10-05T22:01:38.385Z,12.35
2022-10-05T22:04:07.329Z,12.31
2022-10-05T22:06:36.168Z,12.26
2022-10-05T22:09:05.337Z,12.23
2022-10-05T22:11:34.048Z,12.19
2022-10-05T22:14:02.494Z,12.16
2022-10-05T22:16:33.503Z,12.12
2022-10-05T22:19:04.016Z,12.09
2022-10-05T22:21:37.265Z,12.05
2022-10-05T22:24:06.795Z,12.02
2022-10-05T22:26:35.801Z,11.98
2022-10-05T22:29:04.541Z,11.95
2022-10-05T22:31:33.374Z,11.91
2022-10-05T22:34:01.750Z,11.87
2022-10-05T22:36:30.127Z,11.84
2022-10-05T22:38:58.499Z,11.81
2022-10-05T22:41:26.926Z,11.79
2022-10-05T22:43:55.277Z,11.74
2022-10-05T22:46:23.707Z,11.71
2022-10-05T22:48:52.115Z,11.68
2022-10-05T22:51:20.476Z,11.64
2022-10-05T22:53:49.011Z,11.62
2022-10-05T22:56:17.891Z,11.59
2022-10-05T22:58:46.552Z,11.57
2022-10-05T23:01:17.388Z,11.54
2022-10-05T23:03:46.220Z,11.51
2022-10-05T23:06:16.621Z,11.47
2022-10-05T23:08:45.340Z,11.44
2022-10-05T23:11:15.699Z,11.41
2022-10-05T23:13:44.384Z,11.38
2022-10-05T23:16:14.970Z,11.34
2022-10-05T23:18:44.322Z,11.31
2022-10-05T23:21:12.692Z,11.27
2022-10-05T23:23:42.768Z,11.24
2022-10-05T23:26:12.590Z,11.21
2022-10-05T23:28:45.871Z,11.17
2022-10-05T23:31:15.750Z,11.15
2022-10-05T23:33:44.691Z,11.11
2022-10-05T23:36:16.083Z,11.08
2022-10-05T23:38:44.491Z,11.05
2022-10-05T23:41:13.314Z,11.02
2022-10-05T23:43:41.885Z,10.99
2022-10-05T23:46:10.792Z,10.96
2022-10-05T23:48:40.445Z,10.93
2022-10-05T23:51:10.174Z,10.89
2022-10-05T23:53:38.728Z,10.86
2022-10-05T23:56:07.583Z,10.84
2022-10-05T23:58:36.065Z,10.81
